Time;durP1;ratioP1;P1;durP2;ratioP2;P2;SDS_P1;SDS_P2;PMS_P1;PMS_P2;Temp;Humidity;BMP_temperature;BMP_pressure;BME280_temperature;BME280_humidity;BME280_pressure;Samples;Min_cycle;Max_cycle;Signal;HPM_P1;HPM_P2
2023/08/31 00:00:36;;;;;;;1.75;0.68;;;10.50;99.90;;;;;;5054245;28;20045;-23
2023/08/31 00:03:02;;;;;;;1.13;0.30;;;10.50;99.90;;;;;;5054104;28;20037;-23
2023/08/31 00:05:30;;;;;;;4.45;0.63;;;10.70;99.90;;;;;;5054137;28;20387;-23
2023/08/31 00:07:56;;;;;;;1.75;0.43;;;10.70;99.90;;;;;;5054090;28;20049;-23
2023/08/31 00:10:23;;;;;;;3.92;1.25;;;10.80;99.90;;;;;;5054002;28;20045;-23
2023/08/31 00:12:49;;;;;;;1.75;0.38;;;10.80;99.90;;;;;;5053991;28;20084;-23
2023/08/31 00:15:15;;;;;;;2.70;0.50;;;10.80;99.90;;;;;;5053949;28;20041;-23
2023/08/31 00:17:41;;;;;;;2.15;0.50;;;10.70;99.90;;;;;;5053752;28;20378;-23
2023/08/31 00:20:11;;;;;;;1.55;0.30;;;10.70;99.90;;;;;;5053874;28;20049;-23
2023/08/31 00:22:37;;;;;;;2.35;0.50;;;10.60;99.90;;;;;;5054099;28;20122;-23
2023/08/31 00:25:05;;;;;;;4.15;0.60;;;10.60;99.90;;;;;;5053814;28;20041;-23
2023/08/31 00:27:31;;;;;;;2.95;0.43;;;10.50;99.90;;;;;;5053817;28;20060;-23
2023/08/31 00:29:58;;;;;;;4.55;0.68;;;10.50;99.90;;;;;;5053737;28;20044;-23
2023/08/31 00:32:24;;;;;;;3.85;0.85;;;10.50;99.90;;;;;;5054288;28;20055;-23
2023/08/31 00:34:50;;;;;;;3.50;1.48;;;10.50;99.90;;;;;;5053697;28;20045;-23
2023/08/31 00:37:16;;;;;;;4.18;1.02;;;10.50;99.90;;;;;;5052235;28;20064;-23
2023/08/31 00:39:43;;;;;;;5.93;1.20;;;10.40;99.90;;;;;;5053583;28;20459;-23
2023/08/31 00:42:09;;;;;;;3.42;1.20;;;10.40;99.90;;;;;;5053447;28;20475;-23
2023/08/31 00:44:35;;;;;;;4.13;1.20;;;10.50;99.90;;;;;;5053616;28;20048;-23
2023/08/31 00:47:02;;;;;;;4.47;1.45;;;10.40;99.90;;;;;;5053540;28;20596;-23
2023/08/31 00:49:28;;;;;;;4.60;1.40;;;10.50;99.90;;;;;;5053557;28;20053;-23
2023/08/31 00:51:54;;;;;;;5.10;1.33;;;10.40;99.90;;;;;;5053486;28;20045;-23
2023/08/31 00:54:23;;;;;;;4.15;1.45;;;10.50;99.90;;;;;;5053451;28;20049;-23
2023/08/31 00:56:57;;;;;;;3.63;1.90;;;10.40;99.90;;;;;;5053430;28;20045;-23
2023/08/31 00:59:24;;;;;;;6.93;2.95;;;10.40;99.90;;;;;;5054060;28;20048;-23
2023/08/31 01:01:55;;;;;;;6.05;1.98;;;10.30;99.90;;;;;;5053685;28;20048;-23
2023/08/31 01:04:46;;;;;;;5.90;1.75;;;10.20;99.90;;;;;;5053278;28;20052;-23
2023/08/31 01:07:52;;;;;;;3.55;1.77;;;10.10;99.90;;;;;;5053460;28;20041;-23
2023/08/31 01:10:25;;;;;;;5.38;2.05;;;9.90;99.90;;;;;;5054202;28;20064;-23
2023/08/31 01:13:00;;;;;;;5.78;1.90;;;9.80;99.90;;;;;;5052237;28;20110;-23
2023/08/31 01:15:31;;;;;;;2.92;1.70;;;9.60;99.90;;;;;;5052770;28;20088;-23
2023/08/31 01:17:58;;;;;;;5.32;1.65;;;9.50;99.90;;;;;;5036617;28;20063;-23
2023/08/31 01:20:34;;;;;;;4.32;2.13;;;9.30;99.90;;;;;;5053238;28;20071;-23
2023/08/31 01:23:15;;;;;;;5.90;2.15;;;9.30;99.90;;;;;;5053153;28;20045;-23
2023/08/31 01:25:43;;;;;;;4.40;2.38;;;9.20;99.90;;;;;;5053113;28;20053;-23
2023/08/31 01:28:11;;;;;;;6.95;2.05;;;9.10;99.90;;;;;;5051695;28;20506;-23
2023/08/31 01:30:36;;;;;;;4.13;2.58;;;9.00;99.90;;;;;;5052557;28;20124;-23
2023/08/31 01:33:02;;;;;;;6.18;2.38;;;8.90;99.90;;;;;;5053113;28;20084;-23
2023/08/31 01:35:34;;;;;;;3.78;1.80;;;8.90;99.90;;;;;;5051957;28;20160;-23
2023/08/31 01:38:02;;;;;;;9.75;2.83;;;8.80;99.90;;;;;;5053390;28;20044;-23
2023/08/31 01:40:35;;;;;;;5.68;2.45;;;8.70;99.90;;;;;;5053055;28;20049;-23
2023/08/31 01:43:03;;;;;;;4.45;2.28;;;8.70;99.90;;;;;;5035847;28;20475;-23
2023/08/31 01:45:30;;;;;;;5.38;2.35;;;8.80;99.90;;;;;;5051894;28;20043;-23
2023/08/31 01:47:56;;;;;;;8.27;2.50;;;8.70;99.90;;;;;;5053808;28;20045;-23
2023/08/31 01:50:22;;;;;;;3.53;1.98;;;8.70;99.90;;;;;;5053537;28;20347;-23
2023/08/31 01:52:47;;;;;;;4.45;2.10;;;8.70;99.90;;;;;;5052801;28;20203;-23
2023/08/31 01:55:16;;;;;;;4.82;2.20;;;8.70;99.90;;;;;;5054649;28;20526;-23
2023/08/31 01:57:41;;;;;;;4.88;2.70;;;8.70;99.90;;;;;;5056499;28;20048;-23
2023/08/31 02:00:09;;;;;;;4.50;2.10;;;8.60;99.90;;;;;;5056446;28;20060;-23
2023/08/31 02:02:35;;;;;;;3.88;2.38;;;8.60;99.90;;;;;;5056385;28;20044;-23
2023/08/31 02:05:03;;;;;;;5.07;2.00;;;8.70;99.90;;;;;;5056901;28;20052;-23
2023/08/31 02:07:28;;;;;;;3.45;2.13;;;8.80;99.90;;;;;;5056586;28;20394;-23
2023/08/31 02:09:54;;;;;;;5.93;2.08;;;8.70;99.90;;;;;;5055341;28;20053;-23
2023/08/31 02:12:20;;;;;;;6.35;2.20;;;8.70;99.90;;;;;;5054761;28;20088;-23
2023/08/31 02:14:45;;;;;;;6.78;2.13;;;8.70;99.90;;;;;;5056807;28;20055;-23
2023/08/31 02:17:11;;;;;;;4.30;2.10;;;8.70;99.90;;;;;;5055845;28;20052;-23
2023/08/31 02:19:37;;;;;;;5.13;2.08;;;8.90;99.90;;;;;;5056387;28;20105;-23
2023/08/31 02:22:02;;;;;;;4.75;1.70;;;9.00;99.90;;;;;;5055913;28;20463;-23
2023/08/31 02:24:28;;;;;;;5.80;2.20;;;9.00;99.90;;;;;;5021724;28;20045;-23
2023/08/31 02:26:54;;;;;;;4.15;1.98;;;9.00;99.90;;;;;;5055944;28;20399;-23
2023/08/31 02:29:19;;;;;;;7.18;2.00;;;9.00;99.90;;;;;;5056458;28;20045;-23
2023/08/31 02:31:45;;;;;;;6.32;1.77;;;9.20;99.90;;;;;;5055522;28;20131;-23
2023/08/31 02:34:11;;;;;;;4.85;1.88;;;9.40;99.90;;;;;;5055837;28;20037;-23
2023/08/31 02:36:36;;;;;;;5.85;1.80;;;9.40;99.90;;;;;;5055356;28;20139;-23
2023/08/31 02:39:03;;;;;;;5.03;2.03;;;9.40;99.90;;;;;;5055593;28;20057;-23
2023/08/31 02:41:29;;;;;;;2.67;1.95;;;9.50;99.90;;;;;;5055853;28;20478;-23
2023/08/31 02:43:55;;;;;;;3.30;1.80;;;9.50;99.90;;;;;;5055262;28;20048;-23
2023/08/31 02:46:21;;;;;;;3.20;2.08;;;9.60;99.90;;;;;;5055580;28;20041;-23
2023/08/31 02:48:47;;;;;;;6.70;2.38;;;9.50;99.90;;;;;;5055764;28;20040;-23
2023/08/31 02:51:13;;;;;;;5.03;1.92;;;9.40;99.90;;;;;;5055514;28;20056;-23
2023/08/31 02:53:39;;;;;;;5.72;1.80;;;9.40;99.90;;;;;;5054851;28;20049;-23
2023/08/31 02:56:04;;;;;;;3.35;1.52;;;9.40;99.90;;;;;;5054329;28;20048;-23
2023/08/31 02:58:31;;;;;;;4.07;2.83;;;9.50;99.90;;;;;;5055633;28;20041;-23
2023/08/31 03:01:08;;;;;;;5.95;1.77;;;9.50;99.90;;;;;;5055550;28;20045;-24
2023/08/31 03:03:35;;;;;;;5.15;2.45;;;9.30;99.90;;;;;;5056115;28;20068;-23
2023/08/31 03:06:00;;;;;;;3.90;1.90;;;9.30;99.90;;;;;;5054172;28;20509;-23
2023/08/31 03:08:26;;;;;;;4.53;1.75;;;9.40;99.90;;;;;;5055221;28;20136;-23
2023/08/31 03:10:53;;;;;;;7.63;2.35;;;9.30;99.90;;;;;;5055671;28;20533;-23
2023/08/31 03:13:18;;;;;;;5.50;1.63;;;9.40;99.90;;;;;;5055074;28;20088;-23
2023/08/31 03:15:44;;;;;;;6.63;1.95;;;9.40;99.90;;;;;;5055557;28;20132;-23
2023/08/31 03:18:10;;;;;;;6.70;2.22;;;9.40;99.90;;;;;;5055043;28;20049;-23
2023/08/31 03:20:35;;;;;;;4.47;1.70;;;9.30;99.90;;;;;;5053773;28;20053;-23
2023/08/31 03:23:01;;;;;;;3.83;1.77;;;9.30;99.90;;;;;;5054856;28;20480;-23
2023/08/31 03:25:28;;;;;;;4.00;1.85;;;9.20;99.90;;;;;;5054525;28;20473;-23
2023/08/31 03:27:53;;;;;;;6.53;1.85;;;9.20;99.90;;;;;;5055386;28;20102;-23
2023/08/31 03:30:19;;;;;;;5.07;2.08;;;9.20;99.90;;;;;;5055021;28;20049;-23
2023/08/31 03:32:45;;;;;;;6.07;1.90;;;9.00;99.90;;;;;;5054699;28;20041;-23
2023/08/31 03:35:11;;;;;;;6.47;2.10;;;9.10;99.90;;;;;;5053341;28;20049;-23
2023/08/31 03:37:37;;;;;;;6.38;1.92;;;8.90;99.90;;;;;;5054403;28;20120;-23
2023/08/31 03:40:06;;;;;;;4.57;2.03;;;8.80;99.90;;;;;;5053447;28;20114;-23
2023/08/31 03:42:32;;;;;;;6.47;2.03;;;8.80;99.90;;;;;;5054956;28;20053;-23
2023/08/31 03:44:57;;;;;;;6.35;1.55;;;8.90;99.90;;;;;;5054489;28;20052;-23
2023/08/31 03:47:23;;;;;;;4.68;2.20;;;9.10;99.90;;;;;;5053302;28;20494;-23
2023/08/31 03:49:49;;;;;;;5.13;1.73;;;9.20;99.90;;;;;;5053221;28;20044;-23
2023/08/31 03:52:14;;;;;;;4.68;1.88;;;9.00;99.90;;;;;;5054335;28;20049;-23
2023/08/31 03:54:40;;;;;;;5.10;2.03;;;9.10;99.90;;;;;;5036750;28;20068;-23
2023/08/31 03:57:06;;;;;;;4.65;1.75;;;9.30;99.90;;;;;;5054296;28;20044;-23
2023/08/31 03:59:31;;;;;;;4.70;2.10;;;9.10;99.90;;;;;;5054255;28;20493;-23
2023/08/31 04:01:57;;;;;;;3.90;1.58;;;9.30;99.90;;;;;;5053780;28;20053;-23
2023/08/31 04:04:23;;;;;;;7.15;1.92;;;9.20;99.90;;;;;;5054092;28;20124;-23
2023/08/31 04:06:48;;;;;;;4.47;1.55;;;9.10;99.90;;;;;;5052894;28;20051;-23
2023/08/31 04:09:14;;;;;;;6.10;1.60;;;9.20;99.90;;;;;;5053149;28;20437;-23
2023/08/31 04:11:40;;;;;;;5.88;1.85;;;9.10;99.90;;;;;;5053078;28;20072;-23
2023/08/31 04:14:05;;;;;;;3.00;1.63;;;8.80;99.90;;;;;;5053414;28;20107;-23
2023/08/31 04:16:32;;;;;;;3.83;1.60;;;8.80;99.90;;;;;;5053962;28;20044;-23
2023/08/31 04:18:58;;;;;;;3.65;1.52;;;8.80;99.90;;;;;;5053425;28;20048;-23
2023/08/31 04:21:23;;;;;;;4.97;1.60;;;8.70;99.90;;;;;;5053908;28;20105;-23
2023/08/31 04:23:49;;;;;;;3.75;1.73;;;8.60;99.90;;;;;;5053813;28;20467;-23
2023/08/31 04:26:16;;;;;;;5.85;1.70;;;8.60;99.90;;;;;;5054356;28;20055;-23
2023/08/31 04:28:42;;;;;;;3.42;1.73;;;8.80;99.90;;;;;;5052916;28;20120;-23
2023/08/31 04:31:08;;;;;;;3.22;1.83;;;8.60;99.90;;;;;;5054293;28;20049;-23
2023/08/31 04:33:35;;;;;;;5.05;2.00;;;8.60;99.90;;;;;;5054527;28;20095;-23
2023/08/31 04:36:00;;;;;;;4.18;2.55;;;8.50;99.90;;;;;;5053602;28;20056;-23
2023/08/31 04:38:26;;;;;;;3.92;1.75;;;8.50;99.90;;;;;;5053676;28;20055;-23
2023/08/31 04:40:52;;;;;;;5.38;1.98;;;8.70;99.90;;;;;;5054207;28;20083;-23
2023/08/31 04:43:17;;;;;;;5.45;2.20;;;8.60;99.90;;;;;;5035640;28;20037;-23
2023/08/31 04:45:43;;;;;;;7.18;2.20;;;8.50;99.90;;;;;;5054115;28;20059;-23
2023/08/31 04:48:09;;;;;;;5.30;2.15;;;8.40;99.90;;;;;;5052366;28;20445;-23
2023/08/31 04:50:35;;;;;;;6.70;2.50;;;8.60;99.90;;;;;;5053503;28;20081;-23
2023/08/31 04:53:00;;;;;;;5.70;2.45;;;8.40;99.90;;;;;;5053489;28;20037;-23
2023/08/31 04:55:26;;;;;;;8.93;2.80;;;8.40;99.90;;;;;;5053473;28;20498;-23
2023/08/31 04:57:52;;;;;;;7.57;2.90;;;8.40;99.90;;;;;;5053450;28;20099;-23
2023/08/31 05:00:18;;;;;;;5.15;2.90;;;8.40;99.90;;;;;;5053708;28;20091;-23
2023/08/31 05:02:44;;;;;;;7.03;2.88;;;8.60;99.90;;;;;;5053622;28;20441;-23
2023/08/31 05:05:10;;;;;;;7.43;2.53;;;8.70;99.90;;;;;;5053388;28;20131;-23
2023/08/31 05:07:36;;;;;;;9.07;2.80;;;8.60;99.90;;;;;;5053379;28;20048;-23
2023/08/31 05:10:02;;;;;;;8.98;2.88;;;8.80;99.90;;;;;;5053619;28;20518;-23
2023/08/31 05:12:27;;;;;;;9.70;2.80;;;8.50;99.90;;;;;;5052169;28;20475;-23
2023/08/31 05:14:53;;;;;;;6.38;2.42;;;8.60;99.90;;;;;;5053275;28;20045;-23
2023/08/31 05:17:19;;;;;;;7.38;3.00;;;9.00;99.90;;;;;;5053816;28;20135;-23
2023/08/31 05:19:44;;;;;;;7.18;3.08;;;9.10;99.90;;;;;;5052300;28;20049;-23
2023/08/31 05:22:10;;;;;;;8.82;3.75;;;8.90;99.90;;;;;;5054038;28;20088;-22
2023/08/31 05:24:36;;;;;;;9.00;3.53;;;9.00;99.90;;;;;;5053683;28;20056;-23
2023/08/31 05:27:02;;;;;;;8.18;2.92;;;9.40;99.90;;;;;;5053189;28;20044;-23
2023/08/31 05:29:29;;;;;;;5.72;3.03;;;9.50;99.90;;;;;;5053194;28;20056;-23
2023/08/31 05:31:55;;;;;;;8.38;2.95;;;9.70;99.90;;;;;;5056849;28;20103;-23
2023/08/31 05:34:22;;;;;;;8.00;2.95;;;9.50;99.90;;;;;;5057035;28;20041;-23
2023/08/31 05:36:47;;;;;;;7.97;3.00;;;10.00;99.90;;;;;;5055863;28;20541;-23
2023/08/31 05:39:15;;;;;;;7.18;3.70;;;9.90;99.90;;;;;;5055945;28;20045;-23
2023/08/31 05:41:41;;;;;;;10.52;3.00;;;9.70;99.90;;;;;;5056792;28;20053;-23
2023/08/31 05:44:08;;;;;;;5.85;3.17;;;9.90;99.90;;;;;;5039117;28;20139;-23
2023/08/31 05:46:34;;;;;;;7.25;2.70;;;10.20;99.90;;;;;;5056738;28;20084;-23
2023/08/31 05:48:59;;;;;;;6.68;2.50;;;10.10;99.90;;;;;;5055501;28;20091;-23
2023/08/31 05:51:25;;;;;;;11.07;3.30;;;10.10;99.90;;;;;;5055493;28;20040;-23
2023/08/31 05:53:51;;;;;;;7.32;2.60;;;10.70;99.90;;;;;;5056630;28;20047;-23
2023/08/31 05:56:17;;;;;;;9.90;3.22;;;10.50;99.90;;;;;;5057384;28;20036;-23
2023/08/31 05:58:42;;;;;;;8.30;2.70;;;10.70;99.90;;;;;;5056544;28;20376;-23
2023/08/31 06:01:08;;;;;;;11.52;2.78;;;11.20;99.90;;;;;;5057306;28;20044;-23
2023/08/31 06:03:34;;;;;;;6.03;2.30;;;11.30;99.90;;;;;;5056399;28;20138;-23
2023/08/31 06:06:00;;;;;;;4.43;2.10;;;11.10;99.90;;;;;;5055425;28;20078;-23
2023/08/31 06:08:26;;;;;;;7.88;2.97;;;10.90;99.90;;;;;;5056862;28;20052;-23
2023/08/31 06:10:51;;;;;;;5.20;2.25;;;11.20;99.90;;;;;;5055344;28;20395;-23
2023/08/31 06:13:17;;;;;;;9.02;2.00;;;11.10;99.90;;;;;;5056843;28;20048;-23
2023/08/31 06:15:44;;;;;;;6.50;2.50;;;11.10;99.90;;;;;;5056203;28;20094;-23
2023/08/31 06:18:10;;;;;;;5.40;2.38;;;11.10;99.90;;;;;;5055173;28;20499;-23
2023/08/31 06:20:36;;;;;;;13.60;3.75;;;11.20;99.90;;;;;;5056104;28;20128;-23
2023/08/31 06:23:02;;;;;;;7.30;2.50;;;11.40;99.90;;;;;;5037974;28;20127;-23
2023/08/31 06:25:29;;;;;;;4.82;1.65;;;11.30;99.90;;;;;;5056575;28;20091;-23
2023/08/31 06:27:54;;;;;;;5.95;1.73;;;11.60;99.90;;;;;;5055658;28;20049;-23
2023/08/31 06:30:20;;;;;;;3.25;1.60;;;11.60;99.90;;;;;;5055935;28;20048;-23
2023/08/31 06:32:47;;;;;;;6.57;1.50;;;11.90;99.90;;;;;;5056681;28;20062;-23
2023/08/31 06:35:15;;;;;;;4.47;1.27;;;12.00;99.90;;;;;;5055545;28;20088;-23
2023/08/31 06:37:41;;;;;;;5.55;1.38;;;12.30;99.90;;;;;;5056421;28;20084;-23
2023/08/31 06:40:09;;;;;;;5.20;1.33;;;12.60;99.90;;;;;;5055758;28;20045;-23
2023/08/31 06:42:39;;;;;;;9.45;1.73;;;12.80;99.90;;;;;;5037384;28;20044;-23
2023/08/31 06:45:06;;;;;;;4.93;1.40;;;12.80;99.90;;;;;;5038134;28;20053;-23
2023/08/31 06:47:33;;;;;;;3.60;1.10;;;13.00;99.90;;;;;;5055614;28;20048;-23
2023/08/31 06:49:59;;;;;;;3.70;0.80;;;13.10;99.90;;;;;;5055222;28;20506;-24
2023/08/31 06:52:28;;;;;;;7.43;0.68;;;13.20;99.90;;;;;;5055792;28;20102;-23
2023/08/31 06:54:57;;;;;;;4.93;0.85;;;13.30;99.90;;;;;;5055437;28;20052;-23
2023/08/31 06:57:24;;;;;;;6.97;1.08;;;13.30;99.90;;;;;;5055395;28;20132;-24
2023/08/31 06:59:50;;;;;;;4.03;0.70;;;13.40;99.90;;;;;;5055344;28;20048;-23
2023/08/31 07:02:16;;;;;;;7.10;1.25;;;13.50;99.90;;;;;;5055346;28;20075;-23
2023/08/31 07:04:42;;;;;;;2.75;0.65;;;13.60;99.90;;;;;;5054535;28;20434;-23
2023/08/31 07:07:13;;;;;;;3.90;0.88;;;13.70;99.90;;;;;;5055121;28;20136;-23
2023/08/31 07:09:38;;;;;;;2.83;0.68;;;13.80;99.90;;;;;;5055523;28;20055;-23
2023/08/31 07:12:05;;;;;;;3.65;0.80;;;13.90;99.90;;;;;;5054137;28;20045;-23
2023/08/31 07:14:30;;;;;;;5.43;0.70;;;14.10;99.90;;;;;;5055267;28;20475;-23
2023/08/31 07:16:56;;;;;;;6.90;1.27;;;14.10;99.90;;;;;;5054783;28;20045;-23
2023/08/31 07:19:22;;;;;;;2.00;0.75;;;14.10;99.90;;;;;;5055553;28;20056;-23
2023/08/31 07:21:47;;;;;;;7.97;0.80;;;14.10;99.90;;;;;;5055284;28;20127;-23
2023/08/31 07:24:13;;;;;;;5.68;1.30;;;14.20;99.90;;;;;;5054776;28;20133;-23
2023/08/31 07:26:39;;;;;;;4.28;1.17;;;14.30;99.90;;;;;;5053729;28;20060;-23
2023/08/31 07:29:05;;;;;;;4.45;0.68;;;14.40;99.90;;;;;;5055379;28;20052;-23
2023/08/31 07:31:31;;;;;;;5.40;1.00;;;14.40;99.90;;;;;;5053439;28;20047;-23
2023/08/31 07:33:58;;;;;;;8.32;2.10;;;14.50;99.90;;;;;;5037785;28;20067;-23
2023/08/31 07:36:24;;;;;;;1.77;0.70;;;14.60;99.90;;;;;;5053104;28;20053;-23
2023/08/31 07:38:50;;;;;;;1.58;0.47;;;14.70;99.90;;;;;;5053387;28;20049;-23
2023/08/31 07:41:16;;;;;;;3.70;0.70;;;14.80;99.90;;;;;;5054536;28;20502;-23
2023/08/31 07:43:42;;;;;;;3.30;0.98;;;15.00;99.90;;;;;;5053328;28;20047;-23
2023/08/31 07:46:07;;;;;;;3.95;0.50;;;15.10;99.90;;;;;;5054103;28;20056;-23
2023/08/31 07:48:33;;;;;;;2.75;0.43;;;15.20;99.90;;;;;;5054470;28;20084;-23
2023/08/31 07:50:59;;;;;;;4.07;0.57;;;15.30;99.90;;;;;;5053478;28;20053;-24
2023/08/31 07:53:24;;;;;;;0.98;0.28;;;15.30;99.90;;;;;;5053892;28;20041;-23
2023/08/31 07:55:54;;;;;;;3.55;0.50;;;15.30;99.90;;;;;;5054308;28;20455;-23
2023/08/31 07:58:21;;;;;;;2.35;0.32;;;15.40;99.90;;;;;;5054214;28;20127;-23
2023/08/31 08:00:47;;;;;;;1.65;0.30;;;15.40;99.90;;;;;;5053145;28;20055;-24
2023/08/31 08:03:13;;;;;;;2.40;0.60;;;15.60;99.90;;;;;;5054603;28;20041;-23
2023/08/31 08:05:41;;;;;;;5.18;0.73;;;15.60;99.90;;;;;;5036397;28;20578;-24
2023/08/31 08:08:07;;;;;;;1.98;0.35;;;15.70;99.90;;;;;;5053964;28;20131;-24
2023/08/31 08:10:33;;;;;;;1.17;0.28;;;15.70;99.90;;;;;;5036610;28;20567;-23
2023/08/31 08:12:59;;;;;;;3.90;0.75;;;15.80;99.90;;;;;;5054049;28;20041;-23
2023/08/31 08:15:25;;;;;;;6.05;1.83;;;15.90;99.90;;;;;;5052858;28;20053;-23
2023/08/31 08:17:53;;;;;;;2.10;0.40;;;16.00;99.90;;;;;;5053971;28;20132;-23
2023/08/31 08:20:19;;;;;;;2.25;0.32;;;15.90;77.60;;;;;;5052962;28;20056;-24
2023/08/31 08:22:45;;;;;;;1.88;0.40;;;16.00;12.00;;;;;;5053814;28;20441;-24
2023/08/31 08:25:11;;;;;;;2.20;0.40;;;16.10;99.90;;;;;;5053840;28;20613;-24
2023/08/31 08:27:37;;;;;;;1.73;0.30;;;16.20;99.90;;;;;;5052324;28;20526;-24
2023/08/31 08:30:03;;;;;;;1.98;0.50;;;16.30;17.40;;;;;;5053754;28;20052;-24
2023/08/31 08:32:29;;;;;;;2.58;0.57;;;16.40;1.00;;;;;;5052606;28;20123;-24
2023/08/31 08:34:54;;;;;;;3.15;0.52;;;16.60;99.90;;;;;;5053410;28;20515;-24
2023/08/31 08:37:20;;;;;;;1.90;0.15;;;16.80;99.90;;;;;;5052314;28;20067;-24
2023/08/31 08:39:50;;;;;;;3.15;0.50;;;16.90;51.40;;;;;;5052463;28;20048;-24
2023/08/31 08:42:19;;;;;;;7.35;0.47;;;17.10;5.50;;;;;;5053651;28;20051;-24
2023/08/31 08:44:44;;;;;;;1.55;0.30;;;17.10;1.00;;;;;;5053530;28;20041;-24
2023/08/31 08:47:12;;;;;;;0.70;0.22;;;17.30;91.20;;;;;;5053416;28;20103;-24
2023/08/31 08:49:38;;;;;;;1.48;0.52;;;17.20;99.90;;;;;;5054103;28;20045;-24
2023/08/31 08:52:04;;;;;;;1.33;0.25;;;16.50;1.00;;;;;;5053520;28;20055;-24
2023/08/31 08:54:30;;;;;;;3.90;0.95;;;16.00;65.30;;;;;;5053484;28;20045;-24
2023/08/31 08:56:57;;;;;;;2.55;0.38;;;15.50;1.00;;;;;;5052282;28;20064;-24
2023/08/31 08:59:23;;;;;;;2.95;0.22;;;15.40;99.90;;;;;;5053076;28;20055;-24
2023/08/31 09:01:49;;;;;;;1.95;0.30;;;15.50;99.90;;;;;;5053442;28;20106;-24
2023/08/31 09:04:15;;;;;;;1.02;0.13;;;15.50;99.90;;;;;;5054421;28;20124;-24
2023/08/31 09:06:41;;;;;;;0.63;0.10;;;15.70;1.00;;;;;;5057725;28;20045;-24
2023/08/31 09:09:09;;;;;;;3.78;0.35;;;16.10;1.00;;;;;;5056994;28;20059;-24
2023/08/31 09:11:36;;;;;;;1.20;0.17;;;;;;;;;;5057460;28;20045;-23
2023/08/31 09:14:15;;;;;;;2.83;0.55;;;17.40;99.90;;;;;;5056708;28;20053;-24
2023/08/31 09:16:45;;;;;;;2.08;0.47;;;17.80;99.90;;;;;;5058012;28;20131;-24
2023/08/31 09:19:19;;;;;;;1.05;0.28;;;17.90;99.90;;;;;;5058197;28;20049;-24
2023/08/31 09:21:46;;;;;;;0.45;0.20;;;18.40;97.40;;;;;;5056139;28;20151;-24
2023/08/31 09:24:13;;;;;;;2.55;0.25;;;18.30;99.90;;;;;;5057133;28;20430;-24
2023/08/31 09:26:40;;;;;;;1.77;0.40;;;18.30;99.90;;;;;;5057674;28;20174;-24
2023/08/31 09:29:09;;;;;;;1.67;0.28;;;18.10;1.00;;;;;;5056713;28;20052;-24
2023/08/31 09:31:34;;;;;;;1.63;0.20;;;17.80;1.00;;;;;;5057030;28;20047;-24
2023/08/31 09:34:01;;;;;;;1.40;0.20;;;17.20;21.40;;;;;;5055915;28;20040;-24
2023/08/31 09:36:28;;;;;;;1.35;0.35;;;17.00;99.90;;;;;;5055573;28;20053;-24
2023/08/31 09:38:58;;;;;;;0.98;0.25;;;16.70;99.90;;;;;;5056980;28;20049;-24
2023/08/31 09:41:23;;;;;;;0.20;0.10;;;16.20;99.90;;;;;;5056932;28;20059;-24
2023/08/31 09:43:49;;;;;;;0.93;0.28;;;15.80;99.90;;;;;;5056727;28;20041;-24
2023/08/31 09:46:15;;;;;;;2.47;0.30;;;15.70;1.00;;;;;;5056832;28;20041;-24
2023/08/31 09:48:43;;;;;;;0.98;0.20;;;15.80;45.00;;;;;;5055502;28;20045;-24
2023/08/31 09:51:10;;;;;;;1.48;0.40;;;16.00;99.90;;;;;;5057029;28;20049;-24
2023/08/31 09:53:37;;;;;;;2.55;0.90;;;16.80;1.00;;;;;;5039867;28;20048;-24
2023/08/31 09:56:06;;;;;;;2.58;0.57;;;17.90;99.90;;;;;;5055653;28;20507;-24
2023/08/31 09:58:33;;;;;;;1.95;0.40;;;18.20;99.90;;;;;;5056538;28;20053;-24
2023/08/31 10:00:59;;;;;;;2.95;0.50;;;18.40;33.70;;;;;;5057055;28;20431;-24
2023/08/31 10:03:27;;;;;;;3.25;0.65;;;17.40;1.00;;;;;;5056416;28;20386;-24
2023/08/31 10:05:54;;;;;;;1.23;0.30;;;16.50;1.00;;;;;;5056990;28;20055;-24
2023/08/31 10:08:20;;;;;;;1.75;0.28;;;16.10;1.00;;;;;;5056038;28;20051;-24
2023/08/31 10:10:46;;;;;;;1.38;0.22;;;16.70;40.60;;;;;;5056362;28;20048;-24
2023/08/31 10:13:13;;;;;;;1.15;0.20;;;17.50;1.00;;;;;;5056872;28;20437;-24
2023/08/31 10:15:39;;;;;;;2.55;0.43;;;18.00;46.50;;;;;;5054248;28;20113;-24
2023/08/31 10:18:06;;;;;;;1.55;0.50;;;18.30;99.90;;;;;;5055662;28;20126;-24
2023/08/31 10:20:33;;;;;;;1.90;0.43;;;18.70;99.90;;;;;;5055004;28;20053;-25
2023/08/31 10:23:07;;;;;;;3.47;0.55;;;19.20;99.90;;;;;;5055026;28;20056;-24
2023/08/31 10:25:53;;;;;;;2.55;0.52;;;19.20;99.90;;;;;;5055079;28;20475;-24
2023/08/31 10:28:19;;;;;;;5.03;1.05;;;18.80;99.90;;;;;;5055992;28;20056;-24
2023/08/31 10:31:05;;;;;;;0.47;0.20;;;17.80;1.00;;;;;;5054949;28;20505;-24
2023/08/31 10:33:39;;;;;;;1.67;0.30;;;16.40;99.90;;;;;;5055912;28;20389;-24
2023/08/31 10:36:16;;;;;;;0.63;0.20;;;15.60;4.60;;;;;;5055928;28;20064;-24
2023/08/31 10:38:47;;;;;;;3.90;0.30;;;15.10;99.90;;;;;;5055175;28;20132;-24
2023/08/31 10:41:13;;;;;;;2.50;0.25;;;14.80;1.00;;;;;;5054646;28;20060;-24
2023/08/31 10:43:57;;;;;;;0.93;0.32;;;14.60;1.00;;;;;;5054403;28;20037;-24
2023/08/31 10:46:41;;;;;;;3.85;0.68;;;14.50;99.90;;;;;;5054341;28;20041;-25
2023/08/31 10:49:10;;;;;;;4.05;0.40;;;14.50;99.90;;;;;;5037766;28;20045;-25
2023/08/31 10:51:44;;;;;;;1.15;0.40;;;14.60;99.90;;;;;;5056127;28;20446;-24
2023/08/31 10:54:21;;;;;;;2.22;0.50;;;15.40;99.90;;;;;;5056146;28;20364;-25
2023/08/31 10:57:00;;;;;;;1.38;0.40;;;16.80;99.90;;;;;;5055526;28;20045;-24
2023/08/31 10:59:40;;;;;;;1.58;0.52;;;17.90;99.90;;;;;;5055448;28;20053;-25
2023/08/31 11:02:07;;;;;;;1.35;0.30;;;18.60;99.90;;;;;;5055986;28;20049;-25
2023/08/31 11:05:11;;;;;;;2.58;0.30;;;19.10;64.60;;;;;;5037482;28;20056;-25
2023/08/31 11:07:52;;;;;;;2.03;0.40;;;19.40;99.90;;;;;;5055296;28;20088;-25
2023/08/31 11:10:19;;;;;;;3.95;0.82;;;19.40;1.00;;;;;;5054829;28;20049;-25
2023/08/31 11:12:49;;;;;;;2.28;0.95;;;18.60;1.00;;;;;;5055228;28;20055;-25
2023/08/31 11:15:18;;;;;;;4.28;0.50;;;17.70;99.90;;;;;;5055181;28;20529;-25
2023/08/31 11:17:44;;;;;;;1.52;0.40;;;17.40;68.30;;;;;;5055094;28;20049;-25
2023/08/31 11:20:17;;;;;;;2.10;0.52;;;18.30;99.90;;;;;;5054727;28;20495;-25
2023/08/31 11:22:49;;;;;;;2.28;0.50;;;19.10;99.90;;;;;;5054965;28;20482;-27
2023/08/31 11:25:16;;;;;;;1.87;0.40;;;19.90;1.80;;;;;;5055052;28;20044;-25
2023/08/31 11:27:52;;;;;;;1.95;0.40;;;20.10;95.00;;;;;;5054916;28;20498;-26
2023/08/31 11:30:19;;;;;;;0.93;0.28;;;20.40;1.00;;;;;;5054761;28;20044;-25
2023/08/31 11:32:51;;;;;;;1.20;0.60;;;20.50;99.90;;;;;;5053551;28;20049;-25
2023/08/31 11:35:18;;;;;;;7.68;0.95;;;19.60;7.00;;;;;;5054659;28;20053;-24
2023/08/31 11:37:45;;;;;;;4.85;0.90;;;18.30;1.00;;;;;;5053005;28;20419;-22
2023/08/31 11:40:14;;;;;;;3.20;0.80;;;17.10;73.70;;;;;;5053517;28;20126;-21
2023/08/31 11:42:41;;;;;;;4.25;1.00;;;16.30;99.90;;;;;;5053195;28;20079;-21
2023/08/31 11:45:07;;;;;;;3.38;0.77;;;15.90;1.00;;;;;;5055075;28;20088;-21
2023/08/31 11:47:34;;;;;;;2.15;0.43;;;16.00;1.00;;;;;;5054566;28;20454;-21
2023/08/31 11:50:03;;;;;;;3.83;0.60;;;17.10;96.40;;;;;;5053511;28;20059;-22
2023/08/31 11:52:30;;;;;;;0.88;0.40;;;18.40;10.10;;;;;;5054423;28;20048;-24
2023/08/31 11:54:55;;;;;;;1.75;0.38;;;18.80;99.90;;;;;;5036801;28;20103;-24
2023/08/31 11:57:26;;;;;;;1.90;0.20;;;18.90;1.00;;;;;;5054339;28;20044;-24
2023/08/31 11:59:55;;;;;;;3.22;0.50;;;19.30;1.00;;;;;;5054343;28;20049;-24
2023/08/31 12:02:21;;;;;;;1.17;0.50;;;19.90;99.90;;;;;;5053966;28;20433;-24
2023/08/31 12:04:48;;;;;;;4.50;0.47;;;20.50;65.00;;;;;;5053504;28;20041;-26
2023/08/31 12:07:18;;;;;;;2.20;0.73;;;20.80;99.90;;;;;;5037409;28;20144;-26
2023/08/31 12:09:47;;;;;;;4.50;1.08;;;21.20;99.90;;;;;;5054111;28;20048;-26
2023/08/31 12:12:19;;;;;;;4.00;0.77;;;21.30;99.90;;;;;;5053760;28;20487;-25
2023/08/31 12:14:45;;;;;;;;;;;20.80;1.00;;;;;;5055288;28;20037;-25
2023/08/31 12:17:11;;;;;;;3.45;0.50;;;19.60;99.90;;;;;;5053981;28;20398;-26
2023/08/31 12:19:39;;;;;;;3.53;0.60;;;18.60;90.60;;;;;;5052962;28;20053;-25
2023/08/31 12:22:07;;;;;;;4.85;0.40;;;18.30;99.90;;;;;;5054178;28;20407;-26
2023/08/31 12:24:42;;;;;;;1.73;0.75;;;17.70;99.90;;;;;;5052634;28;20049;-25
2023/08/31 12:27:09;;;;;;;3.15;0.60;;;17.20;1.00;;;;;;5053794;28;20056;-26
2023/08/31 12:29:35;;;;;;;4.40;0.52;;;17.20;99.90;;;;;;5053803;28;20049;-26
2023/08/31 12:32:01;;;;;;;1.33;0.40;;;18.10;1.00;;;;;;5054586;28;20045;-25
2023/08/31 12:34:27;;;;;;;2.50;0.73;;;19.00;93.90;;;;;;5053732;28;20048;-25
2023/08/31 12:36:53;;;;;;;0.88;0.30;;;20.00;1.00;;;;;;5052197;28;20057;-25
2023/08/31 12:39:19;;;;;;;1.98;0.40;;;20.50;99.90;;;;;;5053521;28;20132;-26
2023/08/31 12:41:45;;;;;;;3.30;0.70;;;20.30;47.30;;;;;;5053631;28;20128;-26
2023/08/31 12:44:11;;;;;;;2.42;0.63;;;20.40;99.90;;;;;;5053489;28;20128;-26
2023/08/31 12:46:36;;;;;;;1.80;0.20;;;20.40;99.90;;;;;;5053575;28;20061;-26
2023/08/31 12:49:03;;;;;;;2.55;0.40;;;20.30;99.90;;;;;;5053570;28;20053;-27
2023/08/31 12:51:32;;;;;;;4.78;0.40;;;20.30;99.90;;;;;;5053773;28;20394;-26
2023/08/31 12:53:58;;;;;;;4.93;0.40;;;20.40;1.00;;;;;;5052542;28;20135;-26